Time;durP1;ratioP1;P1;durP2;ratioP2;P2;SDS_P1;SDS_P2;PMS_P1;PMS_P2;Temp;Humidity;BMP_temperature;BMP_pressure;BME280_temperature;BME280_humidity;BME280_pressure;Samples;Min_cycle;Max_cycle;Signal;HPM_P1;HPM_P2
2023/05/28 00:01:06;;;;;;;11.63;6.50;;;18.40;92.60;;;;;;5071755;28;20151;-74
2023/05/28 00:03:35;;;;;;;12.83;6.93;;;18.50;92.50;;;;;;5070888;28;20164;-74
2023/05/28 00:06:01;;;;;;;14.33;7.30;;;18.40;92.80;;;;;;5071871;28;20182;-74
2023/05/28 00:08:27;;;;;;;19.10;7.50;;;18.40;93.30;;;;;;5071819;28;20171;-74
2023/05/28 00:10:59;;;;;;;17.57;7.03;;;18.30;93.70;;;;;;5071958;28;20155;-75
2023/05/28 00:13:29;;;;;;;16.80;7.07;;;18.20;94.20;;;;;;5070809;28;20174;-75
2023/05/28 00:15:55;;;;;;;17.20;7.53;;;18.30;94.40;;;;;;5070880;28;20174;-75
2023/05/28 00:18:21;;;;;;;18.00;6.80;;;18.30;95.00;;;;;;5070464;28;20531;-74
2023/05/28 00:20:48;;;;;;;21.13;7.37;;;18.30;95.10;;;;;;5072127;28;20167;-75
2023/05/28 00:23:14;;;;;;;16.10;7.10;;;18.30;95.20;;;;;;5075166;28;20140;-75
2023/05/28 00:25:40;;;;;;;15.90;7.77;;;18.20;95.90;;;;;;5075915;28;20179;-76
2023/05/28 00:28:06;;;;;;;15.63;6.90;;;18.20;96.00;;;;;;5075672;28;20220;-76
2023/05/28 00:30:31;;;;;;;16.10;7.20;;;18.20;96.20;;;;;;5075646;28;20166;-75
2023/05/28 00:32:57;;;;;;;15.97;7.07;;;18.10;96.80;;;;;;5075333;28;20167;-75
2023/05/28 00:35:25;;;;;;;18.67;7.33;;;18.00;97.50;;;;;;5075582;28;20162;-75
2023/05/28 00:37:52;;;;;;;14.83;7.47;;;18.00;98.00;;;;;;5075271;28;20869;-75
2023/05/28 00:40:18;;;;;;;14.73;7.80;;;17.90;98.30;;;;;;5075203;28;20234;-74
2023/05/28 00:42:44;;;;;;;16.50;7.07;;;17.90;98.80;;;;;;5075327;28;20190;-74
2023/05/28 00:45:11;;;;;;;16.47;7.20;;;17.80;99.50;;;;;;5073942;28;20261;-75
2023/05/28 00:47:40;;;;;;;19.37;7.77;;;17.70;99.90;;;;;;5075439;28;20168;-74
2023/05/28 00:50:07;;;;;;;19.70;8.07;;;17.70;99.90;;;;;;5075136;28;20521;-75
2023/05/28 00:52:33;;;;;;;17.33;7.30;;;17.60;99.90;;;;;;5075102;28;20213;-76
2023/05/28 00:54:59;;;;;;;15.47;7.70;;;17.60;99.90;;;;;;5075162;28;20646;-75
2023/05/28 00:57:25;;;;;;;18.97;8.43;;;17.40;99.90;;;;;;5073564;28;20158;-75
2023/05/28 00:59:52;;;;;;;14.57;7.37;;;17.40;99.90;;;;;;5075029;28;20178;-75
2023/05/28 01:02:18;;;;;;;16.87;7.60;;;17.40;99.90;;;;;;5074955;28;20173;-74
2023/05/28 01:04:44;;;;;;;13.23;7.83;;;17.40;99.90;;;;;;5073751;28;20581;-75
2023/05/28 01:07:09;;;;;;;15.40;7.70;;;17.30;99.90;;;;;;5074812;28;20188;-75
2023/05/28 01:09:36;;;;;;;17.37;8.50;;;17.30;99.90;;;;;;5074707;28;20159;-75
2023/05/28 01:12:03;;;;;;;16.40;7.80;;;17.30;99.90;;;;;;5074640;28;20235;-76
2023/05/28 01:14:30;;;;;;;20.13;7.90;;;17.30;99.90;;;;;;5074523;28;20662;-75
2023/05/28 01:16:58;;;;;;;18.50;7.93;;;17.30;99.90;;;;;;5074829;28;20683;-75
2023/05/28 01:19:26;;;;;;;15.60;8.07;;;17.30;99.90;;;;;;5072887;28;20232;-75
2023/05/28 01:22:05;;;;;;;15.20;7.70;;;17.30;99.90;;;;;;5074073;28;20232;-74
2023/05/28 01:24:39;;;;;;;19.10;8.77;;;17.20;99.90;;;;;;5074307;28;20620;-75
2023/05/28 01:27:06;;;;;;;18.70;8.80;;;17.20;99.90;;;;;;5074154;28;20184;-74
2023/05/28 01:29:32;;;;;;;19.53;8.70;;;17.10;99.90;;;;;;5074418;28;20231;-76
2023/05/28 01:31:58;;;;;;;16.97;8.77;;;17.10;99.90;;;;;;5074052;28;20562;-75
2023/05/28 01:34:25;;;;;;;19.33;9.07;;;17.10;99.90;;;;;;5074424;28;20191;-74
2023/05/28 01:37:02;;;;;;;17.53;8.57;;;17.00;99.90;;;;;;5074168;28;20185;-76
2023/05/28 01:39:32;;;;;;;19.87;9.33;;;16.90;99.90;;;;;;5074096;28;20180;-74
2023/05/28 01:41:58;;;;;;;17.10;8.67;;;16.80;99.90;;;;;;5074318;28;20187;-75
2023/05/28 01:44:24;;;;;;;19.40;9.90;;;16.70;99.90;;;;;;5074150;28;20530;-75
2023/05/28 01:46:52;;;;;;;21.80;9.93;;;16.80;99.90;;;;;;5074237;28;20168;-75
2023/05/28 01:49:19;;;;;;;21.40;9.93;;;16.80;99.90;;;;;;5072493;28;20170;-75
2023/05/28 01:51:45;;;;;;;22.77;9.97;;;16.80;99.90;;;;;;5074287;28;20168;-74
2023/05/28 01:54:11;;;;;;;23.03;9.73;;;16.70;99.90;;;;;;5073869;28;20187;-74
2023/05/28 01:56:38;;;;;;;19.63;8.97;;;16.70;99.90;;;;;;5073826;28;20165;-75
2023/05/28 01:59:04;;;;;;;20.47;8.83;;;16.60;99.90;;;;;;5073620;28;20185;-75
2023/05/28 02:01:35;;;;;;;17.90;10.10;;;16.50;99.90;;;;;;5073760;28;20175;-74
2023/05/28 02:04:01;;;;;;;17.33;9.87;;;16.50;99.90;;;;;;5073627;28;20160;-74
2023/05/28 02:06:30;;;;;;;19.30;9.07;;;16.40;99.90;;;;;;5073834;28;20154;-76
2023/05/28 02:08:56;;;;;;;19.13;9.10;;;16.40;99.90;;;;;;5073662;28;20244;-74
2023/05/28 02:11:22;;;;;;;21.60;10.03;;;16.40;99.90;;;;;;5073188;28;20201;-75
2023/05/28 02:13:48;;;;;;;19.37;9.97;;;16.40;99.90;;;;;;5073293;28;20174;-74
2023/05/28 02:16:17;;;;;;;21.53;9.27;;;16.40;99.90;;;;;;5073556;28;20256;-75
2023/05/28 02:18:44;;;;;;;18.00;9.63;;;16.30;99.90;;;;;;5073260;28;20202;-75
2023/05/28 02:21:12;;;;;;;24.53;10.20;;;16.30;99.90;;;;;;5073682;28;20171;-75
2023/05/28 02:23:43;;;;;;;17.37;9.77;;;16.30;99.90;;;;;;5073625;28;20232;-75
2023/05/28 02:26:08;;;;;;;22.60;10.20;;;16.30;99.90;;;;;;5072135;28;20181;-75
2023/05/28 02:28:34;;;;;;;22.13;10.33;;;16.30;99.90;;;;;;5072252;28;20212;-74
2023/05/28 02:31:00;;;;;;;23.10;10.07;;;16.20;99.90;;;;;;5073435;28;20525;-76
2023/05/28 02:33:25;;;;;;;20.93;10.50;;;16.10;99.90;;;;;;5073433;28;20168;-75
2023/05/28 02:35:51;;;;;;;23.43;9.93;;;16.10;99.90;;;;;;5073549;28;20171;-75
2023/05/28 02:38:17;;;;;;;18.17;9.20;;;16.10;99.90;;;;;;5072232;28;20258;-75
2023/05/28 02:40:42;;;;;;;21.10;10.00;;;16.10;99.90;;;;;;5072916;28;20203;-74
2023/05/28 02:43:09;;;;;;;20.83;9.60;;;16.00;99.90;;;;;;5072592;28;20164;-74
2023/05/28 02:45:34;;;;;;;17.20;9.23;;;16.00;99.90;;;;;;5071808;28;20183;-74
2023/05/28 02:48:01;;;;;;;15.43;9.67;;;16.10;99.90;;;;;;5072990;28;20606;-75
2023/05/28 02:50:28;;;;;;;21.13;10.50;;;16.10;99.90;;;;;;5071427;28;20673;-75
2023/05/28 02:52:54;;;;;;;23.23;10.33;;;16.10;99.90;;;;;;5071780;28;20163;-74
2023/05/28 02:55:20;;;;;;;20.07;10.57;;;16.10;99.90;;;;;;5073128;28;20155;-75
2023/05/28 02:57:46;;;;;;;24.30;10.63;;;16.10;99.90;;;;;;5073163;28;20157;-74
2023/05/28 03:00:12;;;;;;;19.03;9.40;;;16.00;99.90;;;;;;5072605;28;20289;-74
2023/05/28 03:02:38;;;;;;;20.47;10.93;;;15.90;99.90;;;;;;5071472;28;20660;-75
2023/05/28 03:05:07;;;;;;;20.37;10.70;;;15.90;99.90;;;;;;5071522;28;20174;-74
2023/05/28 03:07:33;;;;;;;22.10;9.90;;;15.80;99.90;;;;;;5072911;28;20246;-74
2023/05/28 03:09:59;;;;;;;17.93;10.07;;;15.80;99.90;;;;;;5072689;28;20205;-75
2023/05/28 03:12:24;;;;;;;21.23;10.50;;;15.80;99.90;;;;;;5072718;28;20167;-74
2023/05/28 03:14:50;;;;;;;18.43;9.67;;;15.80;99.90;;;;;;5072351;28;20187;-74
2023/05/28 03:17:18;;;;;;;17.57;9.67;;;15.70;99.90;;;;;;5072451;28;20544;-74
2023/05/28 03:19:43;;;;;;;22.27;10.30;;;15.70;99.90;;;;;;5072511;28;20668;-74
2023/05/28 03:22:11;;;;;;;20.77;10.53;;;15.70;99.90;;;;;;5072437;28;20158;-75
2023/05/28 03:24:39;;;;;;;21.57;9.97;;;15.60;99.90;;;;;;5072675;28;20198;-76
2023/05/28 03:27:05;;;;;;;19.47;9.87;;;15.50;99.90;;;;;;5072541;28;20616;-76
2023/05/28 03:29:31;;;;;;;30.70;11.70;;;15.50;99.90;;;;;;5072334;28;20148;-76
2023/05/28 03:31:57;;;;;;;19.40;9.73;;;15.50;99.90;;;;;;5072468;28;20539;-75
2023/05/28 03:34:23;;;;;;;24.63;9.93;;;15.50;99.90;;;;;;5072635;28;20163;-75
2023/05/28 03:36:50;;;;;;;18.67;10.80;;;15.40;99.90;;;;;;5072510;28;20639;-75
2023/05/28 03:39:16;;;;;;;23.17;10.27;;;15.30;99.90;;;;;;5072661;28;20712;-75
2023/05/28 03:41:44;;;;;;;20.37;9.87;;;15.30;99.90;;;;;;5072303;28;20238;-76
2023/05/28 03:44:09;;;;;;;21.23;10.70;;;15.20;99.90;;;;;;5071495;28;20184;-76
2023/05/28 03:46:35;;;;;;;19.40;10.70;;;15.20;99.90;;;;;;5072441;28;20246;-76
2023/05/28 03:49:01;;;;;;;20.60;10.20;;;15.20;99.90;;;;;;5071343;28;20174;-76
2023/05/28 03:51:26;;;;;;;18.77;10.73;;;15.30;99.90;;;;;;5072252;28;20608;-74
2023/05/28 03:53:52;;;;;;;26.53;11.03;;;15.30;99.90;;;;;;5071277;28;20202;-74
2023/05/28 03:56:22;;;;;;;19.30;10.10;;;15.40;99.90;;;;;;5075139;28;20178;-75
2023/05/28 03:58:48;;;;;;;18.87;10.87;;;15.30;99.90;;;;;;5076188;28;20636;-73
2023/05/28 04:01:14;;;;;;;17.40;11.00;;;15.20;99.90;;;;;;5075965;28;20168;-76
2023/05/28 04:03:39;;;;;;;25.93;11.13;;;15.30;99.90;;;;;;5076383;28;20179;-76
2023/05/28 04:06:06;;;;;;;19.23;10.87;;;15.30;99.90;;;;;;5075935;28;20188;-73
2023/05/28 04:08:32;;;;;;;22.30;11.30;;;15.30;99.90;;;;;;5076044;28;20684;-73
2023/05/28 04:10:58;;;;;;;22.63;10.67;;;15.30;99.90;;;;;;5075943;28;20191;-73
2023/05/28 04:13:24;;;;;;;25.97;11.60;;;15.30;99.90;;;;;;5075883;28;20156;-73
2023/05/28 04:15:50;;;;;;;25.50;11.73;;;15.30;99.90;;;;;;5075736;28;20245;-73
2023/05/28 04:18:16;;;;;;;22.10;11.40;;;15.30;99.90;;;;;;5074443;28;20194;-73
2023/05/28 04:20:41;;;;;;;23.10;10.80;;;15.40;99.90;;;;;;5074219;28;20193;-73
2023/05/28 04:23:09;;;;;;;22.97;10.53;;;15.30;99.90;;;;;;5075773;28;20159;-73
2023/05/28 04:25:36;;;;;;;20.37;10.50;;;15.40;99.90;;;;;;5075986;28;20186;-74
2023/05/28 04:28:01;;;;;;;22.67;10.53;;;15.30;99.90;;;;;;5075395;28;20541;-75
2023/05/28 04:30:27;;;;;;;22.47;10.80;;;15.30;99.90;;;;;;5074305;28;20174;-73
2023/05/28 04:32:53;;;;;;;21.40;12.07;;;15.30;99.90;;;;;;5075263;28;20183;-72
2023/05/28 04:35:21;;;;;;;20.17;10.93;;;15.30;99.90;;;;;;5074250;28;20691;-72
2023/05/28 04:37:47;;;;;;;23.17;12.93;;;15.30;99.90;;;;;;5075127;28;20149;-72
2023/05/28 04:40:12;;;;;;;21.50;11.70;;;15.20;99.90;;;;;;5075026;28;20690;-74
2023/05/28 04:42:40;;;;;;;21.37;10.87;;;15.30;99.90;;;;;;5075100;28;20651;-74
2023/05/28 04:45:07;;;;;;;20.10;10.63;;;15.40;99.90;;;;;;5075313;28;20213;-77
2023/05/28 04:47:34;;;;;;;19.93;11.40;;;15.40;99.90;;;;;;5075395;28;20156;-76
2023/05/28 04:50:00;;;;;;;21.43;11.53;;;15.40;99.90;;;;;;5075403;28;20163;-75
2023/05/28 04:52:26;;;;;;;23.37;11.13;;;15.40;99.90;;;;;;5073436;28;20178;-72
2023/05/28 04:54:52;;;;;;;24.43;11.43;;;15.40;99.90;;;;;;5074904;28;20168;-72
2023/05/28 04:57:17;;;;;;;24.87;11.57;;;15.30;99.90;;;;;;5074837;28;20186;-72
2023/05/28 04:59:43;;;;;;;21.87;11.47;;;15.20;99.90;;;;;;5074595;28;20195;-72
2023/05/28 05:02:09;;;;;;;21.73;11.40;;;15.20;99.90;;;;;;5073565;28;20680;-72
2023/05/28 05:04:35;;;;;;;23.70;11.10;;;15.10;99.90;;;;;;5074844;28;20150;-73
2023/05/28 05:07:00;;;;;;;23.53;11.57;;;15.20;99.90;;;;;;5073879;28;20294;-77
2023/05/28 05:09:27;;;;;;;20.47;11.57;;;15.20;99.90;;;;;;5074424;28;20220;-73
2023/05/28 05:11:52;;;;;;;21.97;11.37;;;15.40;99.90;;;;;;5074617;28;20422;-72
2023/05/28 05:14:18;;;;;;;28.73;11.70;;;15.40;99.90;;;;;;5074521;28;20517;-73
2023/05/28 05:16:45;;;;;;;22.13;10.93;;;15.50;99.90;;;;;;5072963;28;20175;-73
2023/05/28 05:19:11;;;;;;;22.67;11.73;;;15.50;99.90;;;;;;5072916;28;20206;-73
2023/05/28 05:21:38;;;;;;;22.37;11.27;;;15.50;99.90;;;;;;5074528;28;20156;-72
2023/05/28 05:24:04;;;;;;;23.90;11.87;;;15.40;99.90;;;;;;5073382;28;20167;-73
2023/05/28 05:26:29;;;;;;;19.80;10.70;;;15.50;99.90;;;;;;5074129;28;20260;-73
2023/05/28 05:28:56;;;;;;;24.73;11.57;;;15.30;99.90;;;;;;5074157;28;20229;-73
2023/05/28 05:31:22;;;;;;;18.40;11.03;;;15.40;99.90;;;;;;5073371;28;20164;-73
2023/05/28 05:33:48;;;;;;;20.17;11.03;;;15.40;99.90;;;;;;5074333;28;20156;-73
2023/05/28 05:36:15;;;;;;;19.67;10.80;;;15.60;99.90;;;;;;5074374;28;20165;-72
2023/05/28 05:38:41;;;;;;;23.87;11.30;;;15.60;99.90;;;;;;5073954;28;20159;-72
2023/05/28 05:41:07;;;;;;;18.57;11.40;;;15.70;99.90;;;;;;5072900;28;20218;-72
2023/05/28 05:43:32;;;;;;;22.97;10.73;;;15.80;99.90;;;;;;5073994;28;20164;-73
2023/05/28 05:45:59;;;;;;;18.83;10.70;;;15.80;99.90;;;;;;5073968;28;20208;-72
2023/05/28 05:48:28;;;;;;;21.07;10.83;;;15.80;99.90;;;;;;5074031;28;20157;-73
2023/05/28 05:50:55;;;;;;;21.70;10.77;;;15.80;99.90;;;;;;5073718;28;20151;-72
2023/05/28 05:53:22;;;;;;;21.17;11.13;;;15.90;99.90;;;;;;5073959;28;20160;-72
2023/05/28 05:55:48;;;;;;;20.70;11.50;;;16.00;99.90;;;;;;5073856;28;20237;-72
2023/05/28 05:58:14;;;;;;;19.97;10.63;;;15.90;99.90;;;;;;5073772;28;20640;-73
2023/05/28 06:00:41;;;;;;;18.40;10.27;;;15.80;99.90;;;;;;5072499;28;20188;-75
2023/05/28 06:03:06;;;;;;;19.30;11.43;;;15.90;99.90;;;;;;5074051;28;20149;-75
2023/05/28 06:05:35;;;;;;;19.17;10.17;;;16.10;99.90;;;;;;5072702;28;20168;-75
2023/05/28 06:08:05;;;;;;;18.30;10.10;;;16.10;99.90;;;;;;5072454;28;20195;-75
2023/05/28 06:10:30;;;;;;;26.33;11.13;;;16.00;99.90;;;;;;5073474;28;20197;-75
2023/05/28 06:12:56;;;;;;;20.43;10.53;;;16.20;99.90;;;;;;5073563;28;20191;-76
2023/05/28 06:15:24;;;;;;;33.17;15.27;;;16.20;99.90;;;;;;5071921;28;20184;-77
2023/05/28 06:17:51;;;;;;;21.87;10.40;;;16.20;99.90;;;;;;5072604;28;20254;-77
2023/05/28 06:20:19;;;;;;;20.73;10.20;;;16.30;99.90;;;;;;5073190;28;20209;-76
2023/05/28 06:22:45;;;;;;;21.77;10.73;;;16.40;99.90;;;;;;5073284;28;20167;-76
2023/05/28 06:25:11;;;;;;;23.47;11.00;;;16.40;99.90;;;;;;5072758;28;20198;-76
2023/05/28 06:27:37;;;;;;;15.90;9.43;;;16.50;99.90;;;;;;5071822;28;20175;-76
2023/05/28 06:30:04;;;;;;;20.47;10.17;;;16.60;99.90;;;;;;5071748;28;20173;-76
2023/05/28 06:32:31;;;;;;;19.83;10.43;;;16.70;99.90;;;;;;5071735;28;20176;-77
2023/05/28 06:34:57;;;;;;;20.77;10.93;;;16.80;99.90;;;;;;5071403;28;20184;-77
2023/05/28 06:37:23;;;;;;;20.50;10.07;;;16.80;99.90;;;;;;5071523;28;20533;-76
2023/05/28 06:39:49;;;;;;;19.60;10.77;;;16.90;99.90;;;;;;5072953;28;20191;-77
2023/05/28 06:42:15;;;;;;;15.60;10.37;;;16.90;99.90;;;;;;5073599;28;20166;-76
2023/05/28 06:44:41;;;;;;;23.03;10.60;;;16.90;99.90;;;;;;5073198;28;20530;-76
2023/05/28 06:47:13;;;;;;;18.53;10.53;;;17.00;99.90;;;;;;5072539;28;20639;-76
2023/05/28 06:49:40;;;;;;;22.00;10.07;;;17.10;99.90;;;;;;5072991;28;20161;-75
2023/05/28 06:52:14;;;;;;;18.73;9.93;;;17.30;99.90;;;;;;5073468;28;20158;-76
2023/05/28 06:54:48;;;;;;;18.73;9.90;;;17.50;99.90;;;;;;5071941;28;20161;-76
2023/05/28 06:57:15;;;;;;;16.63;10.13;;;17.70;99.90;;;;;;5073636;28;20280;-77
2023/05/28 06:59:43;;;;;;;16.47;9.77;;;17.60;99.90;;;;;;5073516;28;20217;-77
2023/05/28 07:02:08;;;;;;;18.43;9.37;;;17.70;99.90;;;;;;5072279;28;20228;-76
2023/05/28 07:04:35;;;;;;;19.67;9.90;;;17.60;99.90;;;;;;5073278;28;20162;-76
2023/05/28 07:07:03;;;;;;;17.57;9.37;;;17.80;99.90;;;;;;5073284;28;20227;-76
2023/05/28 07:09:29;;;;;;;14.63;9.10;;;17.80;99.90;;;;;;5073103;28;20163;-76
2023/05/28 07:11:55;;;;;;;19.07;9.27;;;18.00;99.90;;;;;;5070172;28;20515;-75
2023/05/28 07:14:22;;;;;;;19.27;9.40;;;18.00;99.90;;;;;;5072274;28;20215;-75
2023/05/28 07:16:53;;;;;;;17.87;8.33;;;17.90;99.90;;;;;;5072633;28;20257;-77
2023/05/28 07:19:23;;;;;;;20.97;9.33;;;17.90;99.90;;;;;;5072849;28;20195;-77
2023/05/28 07:21:50;;;;;;;18.60;9.57;;;18.10;99.90;;;;;;5071627;28;20183;-77
2023/05/28 07:24:22;;;;;;;18.47;8.90;;;18.10;99.90;;;;;;5073272;28;20241;-77
2023/05/28 07:26:48;;;;;;;17.67;8.53;;;18.20;99.90;;;;;;5073299;28;20552;-76
2023/05/28 07:29:18;;;;;;;16.47;9.03;;;18.30;99.90;;;;;;5071677;28;20171;-76
2023/05/28 07:31:49;;;;;;;14.83;8.50;;;18.40;99.90;;;;;;5073931;28;20210;-75
2023/05/28 07:34:16;;;;;;;16.00;8.23;;;18.30;99.90;;;;;;5072232;28;20254;-77
2023/05/28 07:36:41;;;;;;;14.77;8.30;;;18.50;99.90;;;;;;5072913;28;20179;-77
2023/05/28 07:39:10;;;;;;;11.80;7.33;;;18.60;99.90;;;;;;5073456;28;20193;-75
2023/05/28 07:41:36;;;;;;;18.43;7.80;;;18.80;99.90;;;;;;5072552;28;20161;-77
2023/05/28 07:44:17;;;;;;;15.80;8.30;;;18.90;99.90;;;;;;5073133;28;20527;-76
2023/05/28 07:46:43;;;;;;;14.47;7.77;;;19.30;99.90;;;;;;5073147;28;20594;-77
2023/05/28 07:49:11;;;;;;;13.40;7.03;;;19.20;99.90;;;;;;5072530;28;20235;-76
2023/05/28 07:51:40;;;;;;;16.83;7.47;;;19.20;99.90;;;;;;5072861;28;20197;-76
2023/05/28 07:54:07;;;;;;;12.50;7.07;;;19.30;99.90;;;;;;5072522;28;20171;-76
2023/05/28 07:56:36;;;;;;;15.80;7.23;;;19.40;99.90;;;;;;5072769;28;20177;-76
2023/05/28 07:59:04;;;;;;;16.07;7.03;;;19.40;99.90;;;;;;5072648;28;20171;-75
2023/05/28 08:01:30;;;;;;;11.93;7.07;;;19.50;99.90;;;;;;5072794;28;20162;-75
2023/05/28 08:03:56;;;;;;;15.20;7.10;;;19.40;99.90;;;;;;5073014;28;20540;-74
2023/05/28 08:06:24;;;;;;;17.17;7.40;;;19.60;99.90;;;;;;5071515;28;20377;-75
2023/05/28 08:08:52;;;;;;;15.70;7.50;;;19.80;99.90;;;;;;5072781;28;20177;-75
2023/05/28 08:11:21;;;;;;;12.03;6.90;;;20.00;99.90;;;;;;5073080;28;20221;-75
2023/05/28 08:13:50;;;;;;;15.00;6.73;;;20.00;99.90;;;;;;5072608;28;20167;-75
2023/05/28 08:16:15;;;;;;;16.83;7.87;;;19.90;99.90;;;;;;5072894;28;20183;-75
2023/05/28 08:18:42;;;;;;;11.27;6.60;;;20.20;99.90;;;;;;5072462;28;20178;-75
2023/05/28 08:21:08;;;;;;;11.70;6.43;;;20.20;99.90;;;;;;5071234;28;20180;-75
2023/05/28 08:23:36;;;;;;;13.73;7.07;;;20.40;99.90;;;;;;5072610;28;20239;-75
2023/05/28 08:26:04;;;;;;;12.50;6.67;;;20.20;99.90;;;;;;5072594;28;20201;-74
2023/05/28 08:28:30;;;;;;;11.23;6.50;;;20.30;99.90;;;;;;5072366;28;20234;-75
2023/05/28 08:30:57;;;;;;;13.07;6.20;;;20.40;99.90;;;;;;5072028;28;20163;-76
2023/05/28 08:33:23;;;;;;;12.37;6.60;;;20.50;99.90;;;;;;5072091;28;20171;-74
2023/05/28 08:35:49;;;;;;;12.17;6.30;;;20.60;99.90;;;;;;5071801;28;20219;-75
2023/05/28 08:38:15;;;;;;;13.73;6.40;;;20.80;99.90;;;;;;5071767;28;20294;-76
2023/05/28 08:40:43;;;;;;;13.17;5.93;;;20.90;99.90;;;;;;5071503;28;20186;-75
2023/05/28 08:43:09;;;;;;;11.10;6.13;;;21.20;99.90;;;;;;5074977;28;20174;-76
2023/05/28 08:45:37;;;;;;;10.67;5.70;;;21.10;99.90;;;;;;5075644;28;20188;-75
2023/05/28 08:48:05;;;;;;;13.93;6.20;;;21.20;99.90;;;;;;5074188;28;20250;-76
2023/05/28 08:50:31;;;;;;;12.73;6.07;;;21.30;99.90;;;;;;5075160;28;20182;-76
2023/05/28 08:52:59;;;;;;;10.30;5.60;;;21.20;99.90;;;;;;5074308;28;20175;-75
2023/05/28 08:55:24;;;;;;;13.03;6.10;;;21.00;99.90;;;;;;5075874;28;20608;-75
2023/05/28 08:57:52;;;;;;;14.27;6.07;;;21.00;99.90;;;;;;5074956;28;20259;-75
2023/05/28 09:00:21;;;;;;;10.00;5.40;;;21.00;99.90;;;;;;5075101;28;20214;-76
2023/05/28 09:02:47;;;;;;;12.20;5.73;;;21.00;99.90;;;;;;5073522;28;20160;-75
2023/05/28 09:05:12;;;;;;;14.80;5.13;;;21.10;99.90;;;;;;5073158;28;20252;-75
2023/05/28 09:07:38;;;;;;;12.40;5.97;;;21.20;99.90;;;;;;5074743;28;20218;-75
2023/05/28 09:10:04;;;;;;;14.73;5.47;;;21.30;99.90;;;;;;5074822;28;20187;-75
2023/05/28 09:12:30;;;;;;;12.13;5.50;;;21.50;99.60;;;;;;5073322;28;20209;-76
2023/05/28 09:14:55;;;;;;;12.33;5.00;;;21.40;99.40;;;;;;5074726;28;20175;-75
2023/05/28 09:17:38;;;;;;;14.20;5.53;;;21.30;99.90;;;;;;5074726;28;20163;-75
2023/05/28 09:20:14;;;;;;;10.73;5.53;;;21.50;99.40;;;;;;5073213;28;20620;-76
2023/05/28 09:22:40;;;;;;;16.37;6.30;;;21.80;99.20;;;;;;5074569;28;20159;-75
2023/05/28 09:25:07;;;;;;;15.83;5.93;;;21.80;99.40;;;;;;5074945;28;20254;-75
2023/05/28 09:27:34;;;;;;;9.63;5.30;;;21.90;98.80;;;;;;5074774;28;20212;-76
2023/05/28 09:30:09;;;;;;;13.27;5.80;;;22.10;98.50;;;;;;5074226;28;20289;-75
2023/05/28 09:32:36;;;;;;;12.67;5.40;;;22.10;97.80;;;;;;5074221;28;20174;-75
2023/05/28 09:35:06;;;;;;;11.07;4.80;;;22.10;98.00;;;;;;5073989;28;20277;-74
2023/05/28 09:37:31;;;;;;;12.70;5.00;;;22.10;98.00;;;;;;5074656;28;20187;-74
2023/05/28 09:40:03;;;;;;;9.97;5.47;;;22.40;97.70;;;;;;5074118;28;20676;-74
2023/05/28 09:42:39;;;;;;;13.87;5.27;;;22.50;97.10;;;;;;5074269;28;20650;-74
2023/05/28 09:45:08;;;;;;;12.13;5.07;;;22.60;97.50;;;;;;5072920;28;20181;-73
2023/05/28 09:47:42;;;;;;;12.30;5.93;;;22.80;95.70;;;;;;5074948;28;20168;-74
2023/05/28 09:50:08;;;;;;;11.43;4.80;;;22.80;95.50;;;;;;5074574;28;20171;-75
2023/05/28 09:52:39;;;;;;;14.87;5.30;;;22.70;95.90;;;;;;5074553;28;20253;-75
2023/05/28 09:55:07;;;;;;;12.77;4.57;;;22.70;96.30;;;;;;5074822;28;20172;-75
2023/05/28 09:57:44;;;;;;;14.63;5.00;;;22.90;95.60;;;;;;5074674;28;20193;-75
2023/05/28 10:00:21;;;;;;;10.90;4.37;;;22.90;95.70;;;;;;5074683;28;20191;-74
2023/05/28 10:03:11;;;;;;;11.43;4.60;;;22.90;95.20;;;;;;5074509;28;20242;-75
2023/05/28 10:05:43;;;;;;;12.17;4.60;;;23.00;94.90;;;;;;5074450;28;20159;-75
2023/05/28 10:08:15;;;;;;;8.30;4.60;;;23.10;94.70;;;;;;5074745;28;20232;-75
2023/05/28 10:10:46;;;;;;;8.57;4.40;;;23.30;94.20;;;;;;5074630;28;20152;-75
2023/05/28 10:13:14;;;;;;;9.17;4.87;;;23.40;93.40;;;;;;5074304;28;20229;-73
2023/05/28 10:15:40;;;;;;;10.57;5.13;;;23.30;93.20;;;;;;5073661;28;20156;-72
2023/05/28 10:18:07;;;;;;;10.07;4.80;;;23.40;93.40;;;;;;5073499;28;20167;-73
2023/05/28 10:20:35;;;;;;;12.43;5.17;;;23.40;93.70;;;;;;5073546;28;20190;-72
2023/05/28 10:23:01;;;;;;;12.43;5.50;;;23.50;93.70;;;;;;5073479;28;20167;-72
2023/05/28 10:25:27;;;;;;;10.33;4.50;;;23.60;93.30;;;;;;5073506;28;20188;-72
2023/05/28 10:27:58;;;;;;;15.27;5.03;;;23.60;93.50;;;;;;5073598;28;20181;-71
2023/05/28 10:31:03;;;;;;;9.97;4.73;;;23.70;93.00;;;;;;5073079;28;20167;-72
2023/05/28 10:33:30;;;;;;;10.17;5.03;;;23.80;92.70;;;;;;5053757;28;20262;-72
2023/05/28 10:35:58;;;;;;;11.47;4.40;;;23.90;92.60;;;;;;5073294;28;20239;-72
2023/05/28 10:38:25;;;;;;;10.90;4.80;;;24.00;92.60;;;;;;5071633;28;20163;-72
2023/05/28 10:40:51;;;;;;;14.40;5.00;;;24.00;92.10;;;;;;5071485;28;20561;-73
2023/05/28 10:43:38;;;;;;;11.03;4.67;;;24.00;92.20;;;;;;5073040;28;20242;-71
2023/05/28 10:46:24;;;;;;;14.10;5.37;;;24.00;92.60;;;;;;5072799;28;20499;-73
2023/05/28 10:49:14;;;;;;;11.27;4.73;;;24.20;92.00;;;;;;5051816;28;20269;-71
2023/05/28 10:51:51;;;;;;;10.60;4.93;;;24.30;92.10;;;;;;5068003;28;20258;-72
2023/05/28 10:54:24;;;;;;;13.33;4.47;;;24.30;91.90;;;;;;5071566;28;20533;-71
2023/05/28 10:57:20;;;;;;;9.77;4.87;;;24.40;92.50;;;;;;5071619;28;20618;-71
2023/05/28 10:59:58;;;;;;;9.57;4.80;;;24.50;91.50;;;;;;5072810;28;20190;-70
2023/05/28 11:02:27;;;;;;;10.47;4.93;;;24.50;91.50;;;;;;5072721;28;20209;-72
2023/05/28 11:04:55;;;;;;;9.70;4.70;;;24.70;91.30;;;;;;5072140;28;20587;-71
2023/05/28 11:07:30;;;;;;;9.47;4.43;;;25.00;91.30;;;;;;5072837;28;20167;-71
2023/05/28 11:09:57;;;;;;;10.77;5.07;;;25.00;89.60;;;;;;5072929;28;20524;-72
2023/05/28 11:12:26;;;;;;;8.53;4.20;;;25.30;89.50;;;;;;5072969;28;20175;-72
2023/05/28 11:14:53;;;;;;;10.07;5.00;;;25.80;87.50;;;;;;5072831;28;20246;-78
2023/05/28 11:17:19;;;;;;;9.17;4.27;;;26.30;87.50;;;;;;5072909;28;20571;-72
2023/05/28 11:19:47;;;;;;;8.57;4.07;;;27.00;85.70;;;;;;5072863;28;20680;-71
2023/05/28 11:22:15;;;;;;;7.90;4.37;;;27.30;84.50;;;;;;5071600;28;20576;-72
2023/05/28 11:25:00;;;;;;;10.63;4.97;;;27.50;85.00;;;;;;5072777;28;20171;-72
2023/05/28 11:27:33;;;;;;;8.60;4.57;;;28.00;83.60;;;;;;5072569;28;20175;-72
2023/05/28 11:30:01;;;;;;;7.97;4.40;;;28.40;81.60;;;;;;5072483;28;20254;-73
2023/05/28 11:32:28;;;;;;;10.50;4.60;;;28.40;80.40;;;;;;5071171;28;20167;-73
2023/05/28 11:34:55;;;;;;;7.03;4.30;;;28.70;80.20;;;;;;5072731;28;20204;-73
2023/05/28 11:37:29;;;;;;;8.93;4.20;;;29.10;78.80;;;;;;5072591;28;20166;-73
2023/05/28 11:39:57;;;;;;;11.53;5.27;;;29.40;76.50;;;;;;5072643;28;20198;-72
2023/05/28 11:42:25;;;;;;;15.18;8.60;;;29.30;75.30;;;;;;5072725;28;20209;-73
2023/05/28 11:44:51;;;;;;;10.48;4.70;;;29.90;74.30;;;;;;5071373;28;20167;-73
2023/05/28 11:47:18;;;;;;;8.80;4.73;;;29.80;72.70;;;;;;5072705;28;20601;-73
2023/05/28 11:49:44;;;;;;;9.35;4.05;;;29.60;73.00;;;;;;5072949;28;20182;-73
2023/05/28 11:52:11;;;;;;;9.13;4.90;;;30.30;72.60;;;;;;5072640;28;20299;-73
2023/05/28 11:54:38;;;;;;;10.75;5.03;;;30.30;70.30;;;;;;5072479;28;20248;-73
2023/05/28 11:57:05;;;;;;;8.70;4.20;;;29.90;71.00;;;;;;5071128;28;20202;-72
2023/05/28 11:59:32;;;;;;;8.80;5.18;;;30.00;70.30;;;;;;5070599;28;20209;-73
2023/05/28 12:02:12;;;;;;;8.23;5.00;;;30.50;69.60;;;;;;5071230;28;20163;-73
2023/05/28 12:04:37;;;;;;;7.05;4.05;;;30.60;68.50;;;;;;5071032;28;20539;-71
2023/05/28 12:07:03;;;;;;;8.65;4.20;;;30.00;67.80;;;;;;5070984;28;20167;-72
2023/05/28 12:09:29;;;;;;;8.93;4.00;;;29.60;68.60;;;;;;5072374;28;20206;-71
2023/05/28 12:12:11;;;;;;;8.88;4.60;;;29.70;68.30;;;;;;5072337;28;20152;-72
2023/05/28 12:14:36;;;;;;;7.53;4.43;;;30.00;67.50;;;;;;5072276;28;20167;-72
2023/05/28 12:17:08;;;;;;;9.75;4.32;;;30.30;67.50;;;;;;5075824;28;20159;-73
2023/05/28 12:19:35;;;;;;;8.48;4.07;;;30.60;66.60;;;;;;5075900;28;20175;-73
2023/05/28 12:22:02;;;;;;;12.55;4.75;;;31.10;66.00;;;;;;5075991;28;20487;-72
2023/05/28 12:24:29;;;;;;;8.43;4.65;;;31.60;64.30;;;;;;5075826;28;20158;-74
2023/05/28 12:26:54;;;;;;;9.80;3.72;;;31.30;64.60;;;;;;5074730;28;20186;-73
2023/05/28 12:29:20;;;;;;;9.27;4.57;;;32.00;65.10;;;;;;5075277;28;20605;-72
2023/05/28 12:31:45;;;;;;;8.45;4.30;;;32.50;63.00;;;;;;5075331;28;20170;-74
2023/05/28 12:34:11;;;;;;;8.95;4.70;;;32.50;63.10;;;;;;5075470;28;20534;-73
2023/05/28 12:36:37;;;;;;;8.30;4.47;;;32.50;62.80;;;;;;5075349;28;20175;-74
2023/05/28 12:39:07;;;;;;;10.70;4.50;;;32.20;62.60;;;;;;5075079;28;20257;-74